Airfield :
LOGIN :

Register | Disclaimer

   EN    FR    IT 

 










Legend :    VFR   Marginal VFR   IFR   Intensive IFR   Very Intensive IFR
Visi :
Ceiling :
>= 8 km
>= 3000ft
5 to 8 km
1000 to 3000 ft
1500m to 5 km
500 to 1000 ft
800 to 1500m
200 to 500 ft
< 800m
< 200 ft
Symbols :   Thunderstorms  Fog  Heavy snow  Heavy precipitations  Wind > 20 kt
SIGMETs :     Misc.  Thunderstorms  Icing  Turbulence  Mountain Waves  Volcanic Ashes






- Airport Elevation : 416 ft
- IATA code : OVD


LEAS - Asturias

CURRENT METAR :
  • 272330Z AUTO 29018KT 260V330 9999 BKN016 BKN029 OVC036 11/10 Q1015

EXPIRED METARs :
  • 272300Z AUTO 30016G26KT 260V350 7000 SCT008 BKN027 OVC050 12/11 Q1015
  • 272230Z 29012KT 9999 -RA FEW006 BKN035 12/11 Q1014 TEMPO RA
  • 272200Z 30017KT 9999 -RA FEW006 BKN035 12/11 Q1014 TEMPO RA
  • 272130Z 30016KT 280V340 9999 BKN045 12/11 Q1013 TEMPO RA
  • 272100Z 32012KT 280V030 9999 FEW040 BKN055 12/10 Q1013 TEMPO RA

TAF TAF LEAS
Valid from the 27 at 21:00 until the 28 at 21:00 UTC


272000Z 2721/2821 24009KT 9999 SCT030 SCT050 TX13/2815Z TN08/2807Z
TEMPO 2721/2803 27015G25KT
TEMPO 2812/2818 30010KT
TEMPO 2721/2724 3000 RA



MET'MAP, your aeronautical weather chart ! - Copyright ORBIFLY December 2007 - Disclaimer

ORBIFLY MET'MAP TEAM :

Programming & Development : Alexandra Zaïnal
Concept & original design : Baudouin d'Aumeries
Assistance for programming : Marc-Olivier Méhu
Technical & hardware support : Manuel Goepfert

Contact : metmap@orbifly.com




SOURCES & CREDITS :

   NOAA